Time;durP1;ratioP1;P1;durP2;ratioP2;P2;SDS_P1;SDS_P2;PMS_P1;PMS_P2;Temp;Humidity;BMP_temperature;BMP_pressure;BME280_temperature;BME280_humidity;BME280_pressure;Samples;Min_cycle;Max_cycle;Signal;HPM_P1;HPM_P2
2023/10/04 06:47:10;;;;;;;23.50;7.80;;;;;;;15.38;61.22;98794.91;5423929;23;20030;31
2023/10/04 06:49:35;;;;;;;18.58;7.95;;;;;;;15.03;60.81;98724.06;4849321;29;20041;-90
2023/10/04 06:52:17;;;;;;;34.92;8.75;;;;;;;15.25;60.11;98750.16;4976132;23;20051;-92
2023/10/04 06:55:02;;;;;;;20.65;7.32;;;;;;;15.62;60.33;98780.09;4870785;29;20063;-90
2023/10/04 07:13:25;;;;;;;17.33;7.47;;;;;;;15.89;58.88;98702.00;4900446;29;20055;-91
2023/10/04 07:15:52;;;;;;;29.92;7.72;;;;;;;15.85;57.79;98675.50;4882804;29;20053;-91
2023/10/04 07:18:19;;;;;;;24.27;7.63;;;;;;;15.98;57.26;98697.03;4866232;29;20045;-89
2023/10/04 07:21:07;;;;;;;36.38;8.10;;;;;;;16.37;58.10;98740.31;4850430;29;20036;-90
2023/10/04 07:23:36;;;;;;;26.42;7.70;;;;;;;16.20;57.29;98701.00;4868476;29;20081;-90
2023/10/04 07:26:09;;;;;;;29.48;7.25;;;;;;;16.20;57.18;98692.72;4863131;29;20075;-90
2023/10/04 07:28:41;;;;;;;26.35;7.68;;;;;;;16.07;56.83;98655.47;4891838;29;20037;-90
2023/10/04 07:31:12;;;;;;;37.80;7.47;;;;;;;16.53;56.59;98721.69;4863662;29;20115;-88
2023/10/04 07:33:38;;;;;;;25.17;7.43;;;;;;;16.31;56.25;98672.81;4823411;29;20058;-90
2023/10/04 07:36:06;;;;;;;25.10;8.27;;;;;;;16.35;56.33;98648.84;4824280;29;20058;-90
2023/10/04 07:38:58;;;;;;;18.15;7.45;;;;;;;16.46;55.97;98685.72;4810876;29;20089;-90
2023/10/04 07:41:28;;;;;;;27.45;7.60;;;;;;;16.49;55.83;98668.44;4812325;29;20057;-94
2023/10/04 07:43:55;;;;;;;19.85;7.93;;;;;;;16.74;55.69;98712.97;4780041;29;20080;-91
2023/10/04 07:46:25;;;;;;;22.97;7.97;;;;;;;16.69;55.93;98685.72;4826639;29;20070;-90
2023/10/04 07:48:51;;;;;;;43.00;8.88;;;;;;;16.59;55.39;98670.56;4824449;29;20081;-91
2023/10/04 07:51:17;;;;;;;22.37;7.07;;;;;;;16.50;55.22;98647.94;4824423;29;20066;-89
2023/10/04 07:53:46;;;;;;;19.45;7.07;;;;;;;16.50;55.40;98642.41;4823173;29;20059;-90
2023/10/04 07:56:12;;;;;;;28.60;7.82;;;;;;;16.56;55.03;98635.44;4811492;29;20068;-92
2023/10/04 07:59:01;;;;;;;20.42;7.53;;;;;;;17.07;54.77;98717.09;4813016;29;20063;-93
2023/10/04 08:01:28;;;;;;;20.00;7.25;;;;;;;16.73;54.48;98647.91;4796727;29;20055;-91
2023/10/04 08:03:56;;;;;;;30.15;8.15;;;;;;;17.01;54.10;98672.44;5023882;23;20060;-90
2023/10/04 08:06:23;;;;;;;26.98;8.70;;;;;;;17.24;53.86;98697.22;4923433;29;20043;-94
2023/10/04 08:08:50;;;;;;;27.25;8.23;;;;;;;16.97;53.79;98627.41;4886457;29;20051;-93
2023/10/04 08:11:20;;;;;;;35.15;7.88;;;;;;;17.48;53.27;98693.25;4914045;29;20051;-87
2023/10/04 08:13:48;;;;;;;24.65;7.82;;;;;;;16.79;52.80;98569.19;4890634;29;20131;-90
2023/10/04 08:16:16;;;;;;;38.17;8.30;;;;;;;17.41;53.71;98635.09;4880199;29;20085;-86
2023/10/04 08:18:45;;;;;;;21.13;8.20;;;;;;;17.14;52.95;98579.91;4886402;29;20135;-88
2023/10/04 08:21:15;;;;;;;44.45;8.90;;;;;;;17.58;53.07;98656.66;4870752;29;20045;-87
2023/10/04 08:23:45;;;;;;;28.10;8.27;;;;;;;17.64;52.53;98656.31;4889239;29;20373;-86
2023/10/04 08:26:13;;;;;;;59.55;9.20;;;;;;;17.15;52.73;98600.03;4890391;29;20051;-87
2023/10/04 08:28:46;;;;;;;34.55;8.75;;;;;;;17.41;52.94;98617.72;4899213;29;20056;-86
2023/10/04 08:31:22;;;;;;;25.48;8.45;;;;;;;17.83;52.57;98672.75;4884357;29;20067;-87
2023/10/04 08:33:54;;;;;;;17.80;8.57;;;;;;;17.88;52.70;98666.91;4900053;29;20041;-85
2023/10/04 08:36:22;;;;;;;25.67;9.15;;;;;;;17.37;52.41;98587.28;4893642;29;20506;-88
2023/10/04 08:38:48;;;;;;;27.65;8.07;;;;;;;17.48;52.20;98598.47;4879989;29;20055;-87
2023/10/04 08:41:18;;;;;;;37.03;8.35;;;;;;;17.51;52.21;98612.31;4878955;29;20073;-87
2023/10/04 08:43:49;;;;;;;32.08;8.65;;;;;;;17.96;52.07;98670.53;4870435;29;20092;-88
2023/10/04 08:46:19;;;;;;;24.17;7.82;;;;;;;17.80;52.21;98612.69;4864296;29;20059;-87
2023/10/04 08:49:10;;;;;;;33.97;8.27;;;;;;;17.96;51.95;98626.31;4860311;29;20310;-89
2023/10/04 08:56:08;;;;;;;27.05;8.05;;;;;;;18.15;51.24;98641.91;4890557;29;20025;-88
2023/10/04 08:59:03;;;;;;;19.50;7.35;;;;;;;18.19;51.27;98640.75;4815833;29;20058;-88
2023/10/04 09:02:01;;;;;;;27.02;7.38;;;;;;;18.11;51.45;98639.09;4797881;29;20089;-87
2023/10/04 09:04:31;;;;;;;28.17;7.95;;;;;;;17.83;51.15;98600.88;4787027;29;20569;-85
2023/10/04 09:07:25;;;;;;;27.80;8.00;;;;;;;18.07;51.46;98635.50;4847608;29;20139;-89
2023/10/04 09:10:15;;;;;;;26.33;8.63;;;;;;;17.97;51.40;98617.63;4863653;29;20033;-85
2023/10/04 09:13:09;;;;;;;23.52;7.90;;;;;;;18.00;51.76;98605.78;4859184;29;20037;-92
2023/10/04 09:15:43;;;;;;;27.15;8.00;;;;;;;17.98;51.21;98593.50;4880340;29;20548;-87
2023/10/04 09:18:09;;;;;;;16.02;6.65;;;;;;;18.16;51.13;98635.97;4857852;29;20101;-92
2023/10/04 09:20:36;;;;;;;32.47;8.55;;;;;;;17.86;51.52;98589.06;4858818;29;20148;-88
2023/10/04 09:23:16;;;;;;;24.02;7.85;;;;;;;18.30;51.25;98627.81;4869050;29;20057;-89
2023/10/04 09:25:55;;;;;;;35.15;8.88;;;;;;;18.12;51.06;98577.06;4856479;29;20583;-92
2023/10/04 09:28:45;;;;;;;24.48;8.43;;;;;;;18.31;50.28;98578.81;4808191;29;20058;-87
2023/10/04 09:31:14;;;;;;;26.15;8.38;;;;;;;18.48;50.00;98569.88;4849642;29;20573;-88
2023/10/04 09:33:44;;;;;;;20.27;7.70;;;;;;;18.37;49.76;98557.91;4842571;29;20034;-87
2023/10/04 09:36:11;;;;;;;23.80;8.05;;;;;;;18.74;50.34;98590.22;4880287;29;20059;-92
2023/10/04 09:39:04;;;;;;;150.50;12.53;;;;;;;18.42;49.74;98559.53;4928920;29;20047;-86
2023/10/04 09:41:39;;;;;;;37.97;8.40;;;;;;;18.64;50.12;98590.91;4911687;29;20037;-93
2023/10/04 09:44:36;;;;;;;40.53;9.02;;;;;;;18.52;50.43;98580.97;4872185;29;20076;-93
2023/10/04 09:47:03;;;;;;;25.77;8.07;;;;;;;18.46;50.42;98601.88;4924086;29;20044;-85
2023/10/04 09:49:32;;;;;;;25.83;8.90;;;;;;;18.19;50.45;98570.81;4921791;29;20064;-90
2023/10/04 09:52:07;;;;;;;24.83;8.18;;;;;;;18.47;50.42;98607.00;4917145;29;20063;-88
2023/10/04 09:54:35;;;;;;;27.70;8.95;;;;;;;18.28;50.09;98568.53;4907474;29;20036;-87
2023/10/04 09:57:08;;;;;;;29.88;7.53;;;;;;;18.17;49.78;98548.25;4922243;29;20051;-89
2023/10/04 09:59:39;;;;;;;27.02;7.68;;;;;;;18.60;49.58;98604.72;4905127;29;20047;-85
2023/10/04 10:02:16;;;;;;;31.35;7.55;;;;;;;18.49;49.90;98565.91;4912049;29;20068;-87
2023/10/04 10:04:43;;;;;;;26.25;8.45;;;;;;;18.51;49.76;98548.94;4896762;29;20044;-86
2023/10/04 10:07:22;;;;;;;31.02;8.25;;;;;;;18.31;49.41;98506.91;4886295;29;20044;-93
2023/10/04 10:10:16;;;;;;;27.42;7.60;;;;;;;18.72;49.11;98564.91;4914533;29;20052;-87
2023/10/04 10:12:45;;;;;;;23.77;7.70;;;;;;;18.72;49.19;98542.75;4908011;29;20088;-92
2023/10/04 10:15:13;;;;;;;28.45;7.97;;;;;;;18.82;49.81;98544.81;4899390;29;20068;-89
2023/10/04 10:17:59;;;;;;;29.92;8.15;;;;;;;18.89;49.07;98530.19;4890248;29;20042;-86
2023/10/04 10:20:48;;;;;;;21.50;8.13;;;;;;;19.00;49.21;98540.13;4901782;29;20040;-89
2023/10/04 10:24:09;;;;;;;33.53;9.20;;;;;;;19.31;49.21;98576.72;4932048;29;20100;-89
2023/10/04 10:26:49;;;;;;;28.60;8.07;;;;;;;19.05;48.53;98547.31;4903535;29;20044;-91
2023/10/04 10:29:47;;;;;;;22.10;7.82;;;;;;;19.24;47.95;98555.31;4876265;29;20068;-89
2023/10/04 10:32:28;;;;;;;24.92;7.88;;;;;;;18.94;48.31;98466.94;4912602;29;20072;-85
2023/10/04 10:35:14;;;;;;;32.13;8.55;;;;;;;19.27;47.66;98533.53;4909130;29;20139;-88
2023/10/04 10:37:47;;;;;;;19.10;8.32;;;;;;;19.54;48.06;98565.31;4889071;29;20040;-87
2023/10/04 10:41:16;;;;;;;26.48;8.05;;;;;;;19.44;47.81;98544.69;4914668;29;20043;-87
2023/10/04 10:44:33;;;;;;;20.55;7.07;;;;;;;19.54;48.16;98568.09;4848587;29;20136;-90
2023/10/04 10:47:07;;;;;;;22.65;8.35;;;;;;;19.60;48.17;98565.72;4832434;29;20050;-86
2023/10/04 10:50:01;;;;;;;27.88;8.55;;;;;;;19.30;47.99;98538.28;4861777;29;20065;-87
2023/10/04 10:52:38;;;;;;;22.42;7.18;;;;;;;19.44;48.35;98563.31;4857307;29;20050;-88
2023/10/04 10:55:18;;;;;;;28.70;8.98;;;;;;;19.45;48.64;98564.88;4846596;29;20126;-87
2023/10/04 10:57:50;;;;;;;19.88;7.95;;;;;;;19.36;48.70;98573.53;4831370;29;20042;-88
2023/10/04 11:02:43;;;;;;;28.35;8.00;;;;;;;19.06;49.04;98548.88;4854253;29;20049;-86
2023/10/04 11:05:12;;;;;;;30.08;7.97;;;;;;;18.97;49.03;98535.41;4854807;29;20181;-89
2023/10/04 11:07:39;;;;;;;26.17;7.22;;;;;;;19.10;49.25;98546.91;4852780;29;20057;-89
2023/10/04 11:10:09;;;;;;;29.20;8.40;;;;;;;19.21;49.48;98572.72;4835850;29;20050;-86
2023/10/04 11:12:38;;;;;;;31.67;8.32;;;;;;;19.10;49.59;98565.50;4816578;29;20069;-87
2023/10/04 11:15:09;;;;;;;26.92;8.43;;;;;;;19.09;49.81;98567.50;4836738;29;20085;-87
2023/10/04 11:17:36;;;;;;;21.98;7.72;;;;;;;19.01;49.97;98569.44;4829337;29;20390;-86
2023/10/04 11:20:09;;;;;;;21.55;8.48;;;;;;;19.10;50.26;98596.78;4864643;29;20052;-88
2023/10/04 11:22:39;;;;;;;17.77;8.02;;;;;;;18.84;50.06;98569.31;4924183;29;20498;-87
2023/10/04 11:25:08;;;;;;;26.02;8.10;;;;;;;18.99;50.18;98598.69;4924577;29;20087;-86
2023/10/04 11:27:40;;;;;;;35.25;8.80;;;;;;;18.89;50.47;98589.16;4901800;29;20044;-85
2023/10/04 11:30:23;;;;;;;30.40;10.38;;;;;;;18.97;50.40;98618.50;4904191;29;20522;-86
2023/10/04 11:32:50;;;;;;;34.90;10.23;;;;;;;18.92;51.04;98620.81;4918918;29;20087;-84
2023/10/04 11:35:18;;;;;;;29.08;9.25;;;;;;;18.88;50.75;98623.56;4911818;29;20059;-85
2023/10/04 11:37:45;;;;;;;34.13;9.35;;;;;;;18.66;51.11;98603.19;4885102;29;20172;-85
2023/10/04 11:40:13;;;;;;;37.70;8.52;;;;;;;18.38;52.35;98611.28;4919634;29;20044;-87
2023/10/04 11:42:41;;;;;;;41.90;9.70;;;;;;;18.54;53.97;98659.66;4897407;29;20051;-86
2023/10/04 11:45:23;;;;;;;42.53;9.88;;;;;;;18.08;53.88;98637.91;4918597;29;20049;-88
2023/10/04 11:48:05;;;;;;;63.85;10.75;;;;;;;18.29;54.00;98684.34;4918009;29;20044;-89
2023/10/04 11:50:50;;;;;;;38.85;8.80;;;;;;;18.02;54.51;98671.81;4896649;29;20054;-89
2023/10/04 11:53:30;;;;;;;43.55;9.75;;;;;;;18.12;54.88;98679.41;4901382;29;20036;-87
2023/10/04 11:56:04;;;;;;;33.38;9.15;;;;;;;18.10;54.92;98695.59;4891335;29;20052;-86
2023/10/04 11:58:53;;;;;;;29.27;9.50;;;;;;;18.02;55.31;98714.06;4875849;29;20092;-87
2023/10/04 12:01:25;;;;;;;18.80;8.35;;;;;;;17.74;55.31;98663.94;4896945;29;20507;-87
2023/10/04 12:03:56;;;;;;;20.05;8.02;;;;;;;17.63;55.55;98677.63;4881315;29;20064;-88
2023/10/04 12:06:26;;;;;;;25.45;8.52;;;;;;;17.87;55.70;98717.03;4898941;29;20043;-85
2023/10/04 12:08:54;;;;;;;25.73;8.85;;;;;;;17.85;55.90;98711.91;4890342;29;20380;-85
2023/10/04 12:11:33;;;;;;;28.00;8.00;;;;;;;17.58;55.97;98667.72;4912211;29;20049;-87
2023/10/04 12:14:04;;;;;;;27.40;9.32;;;;;;;17.86;56.17;98724.53;4890244;29;20052;-88
2023/10/04 12:16:34;;;;;;;35.55;8.50;;;;;;;17.64;57.17;98703.28;4903453;29;20040;-88
2023/10/04 12:19:01;;;;;;;40.55;9.07;;;;;;;17.33;58.46;98680.38;4890288;29;20036;-87
2023/10/04 12:21:27;;;;;;;20.65;7.85;;;;;;;17.47;58.60;98722.03;4900405;29;20041;-89
2023/10/04 12:23:57;;;;;;;47.75;9.65;;;;;;;17.24;59.84;98690.91;4906557;29;20126;-89
2023/10/04 12:26:25;;;;;;;24.10;8.30;;;;;;;17.28;61.57;98720.16;4905500;29;20044;-86
2023/10/04 12:28:55;;;;;;;26.15;9.23;;;;;;;16.78;62.99;98666.16;4886538;29;20154;-87
2023/10/04 12:31:21;;;;;;;43.83;8.82;;;;;;;16.96;63.14;98725.22;4840681;29;20122;-88
2023/10/04 12:33:48;;;;;;;29.27;9.00;;;;;;;16.96;62.98;98724.41;4837538;29;20037;-87
2023/10/04 12:36:15;;;;;;;18.35;7.78;;;;;;;16.91;62.94;98718.03;4890615;29;20716;-88
2023/10/04 12:38:43;;;;;;;24.77;8.70;;;;;;;16.91;63.77;98723.53;4890764;29;20041;-86
2023/10/04 12:41:09;;;;;;;20.08;7.85;;;;;;;16.86;64.23;98723.88;4877901;29;20048;-86
2023/10/04 12:43:36;;;;;;;34.23;8.20;;;;;;;16.73;64.06;98710.59;4857075;29;20045;-87
2023/10/04 12:46:02;;;;;;;21.80;8.35;;;;;;;16.63;64.00;98693.50;4882013;29;20499;-87
2023/10/04 12:48:30;;;;;;;35.97;9.52;;;;;;;16.66;63.90;98697.47;4855213;29;20064;-88
2023/10/04 12:50:56;;;;;;;22.00;7.68;;;;;;;16.62;63.79;98689.16;4855025;29;20046;-87
2023/10/04 12:53:22;;;;;;;17.48;7.32;;;;;;;16.44;63.73;98665.97;4872178;29;20803;-87
2023/10/04 12:55:50;;;;;;;15.23;6.83;;;;;;;16.37;64.04;98671.34;4868286;29;20075;-85
2023/10/04 12:58:19;;;;;;;21.58;7.00;;;;;;;16.60;64.11;98707.22;4879087;29;20056;-89
2023/10/04 13:00:45;;;;;;;18.30;6.55;;;;;;;16.35;64.04;98679.97;4883841;29;20041;-87
2023/10/04 13:03:11;;;;;;;17.92;5.93;;;;;;;16.33;63.91;98673.25;4838373;29;20404;-84
2023/10/04 13:05:38;;;;;;;17.48;6.10;;;;;;;16.63;64.22;98718.31;4861674;29;20045;-86
2023/10/04 13:08:06;;;;;;;14.77;6.43;;;;;;;16.58;64.23;98710.34;4844622;29;20048;-86
2023/10/04 13:10:32;;;;;;;30.85;9.68;;;;;;;16.83;64.88;98743.13;4815355;29;20532;-87
2023/10/04 13:13:03;;;;;;;19.23;7.57;;;;;;;16.66;65.76;98714.03;4858240;29;20060;-85
2023/10/04 13:15:29;;;;;;;22.35;8.18;;;;;;;16.61;67.36;98706.84;4894293;29;20053;-85
2023/10/04 13:17:56;;;;;;;24.42;9.43;;;;;;;16.26;68.77;98662.06;4876711;29;20065;-87
2023/10/04 13:20:32;;;;;;;20.63;9.05;;;;;;;16.46;69.26;98732.63;4871452;29;20045;-89
2023/10/04 13:22:59;;;;;;;19.75;9.73;;;;;;;15.99;70.54;98684.03;4882717;29;20070;-89
2023/10/04 13:25:26;;;;;;;25.80;8.52;;;;;;;16.12;72.37;98715.81;4863782;29;20048;-89
2023/10/04 13:27:51;;;;;;;29.17;16.50;;;;;;;15.93;72.88;98713.88;4880102;29;20220;-88
2023/10/04 13:30:18;;;;;;;50.88;32.70;;;;;;;16.06;73.31;98750.38;4876755;29;20029;-87
2023/10/04 13:32:50;;;;;;;38.72;27.70;;;;;;;16.04;74.51;98752.69;4829894;29;20049;-87
2023/10/04 13:35:19;;;;;;;34.17;21.02;;;;;;;15.69;74.07;98739.78;4877129;29;20052;-87
2023/10/04 13:37:52;;;;;;;27.90;11.73;;;;;;;15.81;74.22;98765.59;4852614;29;20045;-86
2023/10/04 13:40:20;;;;;;;19.00;9.13;;;;;;;15.70;74.61;98757.88;4883857;29;20045;-87
2023/10/04 13:42:51;;;;;;;16.20;8.82;;;;;;;15.64;74.01;98772.28;4886976;29;20021;-88
2023/10/04 13:45:18;;;;;;;17.45;9.40;;;;;;;15.59;74.42;98778.84;4854548;29;20049;-88
2023/10/04 13:47:45;;;;;;;13.77;6.68;;;;;;;15.16;74.23;98722.78;4883051;29;20058;-86
2023/10/04 13:50:13;;;;;;;20.20;11.35;;;;;;;15.55;74.61;98763.41;4888189;29;20515;-85
2023/10/04 13:52:42;;;;;;;23.67;10.77;;;;;;;15.05;74.69;98677.72;4880537;29;20065;-87
2023/10/04 13:55:09;;;;;;;16.50;10.05;;;;;;;15.33;74.86;98731.81;4882614;29;20047;-85
2023/10/04 13:57:39;;;;;;;14.38;7.85;;;;;;;15.34;74.87;98738.94;4870402;29;20100;-87
2023/10/04 14:00:15;;;;;;;20.38;7.93;;;;;;;15.06;75.00;98703.28;4882795;29;20100;-88
2023/10/04 14:02:43;;;;;;;22.10;8.43;;;;;;;15.19;74.85;98730.34;4878215;29;20072;-89
2023/10/04 14:05:18;;;;;;;21.38;7.43;;;;;;;14.91;75.29;98702.94;4926688;29;20108;-87
2023/10/04 14:07:50;;;;;;;18.13;7.90;;;;;;;14.87;76.40;98709.53;4930096;29;20048;-90
2023/10/04 14:10:24;;;;;;;26.63;9.98;;;;;;;15.17;76.61;98759.41;4912904;29;20426;-90
2023/10/04 14:12:58;;;;;;;19.60;8.43;;;;;;;14.68;76.70;98700.03;4891908;29;20040;-86
2023/10/04 14:15:26;;;;;;;18.98;9.70;;;;;;;14.92;77.09;98728.50;4946795;29;20036;-89
2023/10/04 14:17:56;;;;;;;16.80;8.30;;;;;;;14.82;76.98;98732.59;4858964;29;20052;-90
2023/10/04 14:20:26;;;;;;;20.13;9.07;;;;;;;15.18;77.01;98786.56;4886264;29;20045;-84
2023/10/04 14:22:56;;;;;;;18.55;9.40;;;;;;;15.18;76.82;98799.53;4853921;29;20071;-90
2023/10/04 14:25:25;;;;;;;21.20;9.52;;;;;;;15.24;76.47;98800.88;4843759;29;20080;-89
2023/10/04 14:27:51;;;;;;;19.45;9.55;;;;;;;15.23;76.69;98808.34;4890941;29;20041;-84
2023/10/04 14:30:46;;;;;;;14.55;7.93;;;;;;;14.87;76.14;98756.31;4870818;29;20057;-83
2023/10/04 14:33:13;;;;;;;20.85;8.75;;;;;;;14.88;76.06;98768.91;4882925;29;20070;-86
2023/10/04 14:35:40;;;;;;;;;;;;;;;15.15;76.12;98831.31;4851418;29;20057;-86
2023/10/04 14:38:17;;;;;;;21.42;10.18;;;;;;;15.07;76.30;98806.75;4871725;29;21919;-86
2023/10/04 14:40:45;;;;;;;18.17;10.32;;;;;;;15.14;75.86;98824.22;4866930;29;20057;-84
2023/10/04 14:43:12;;;;;;;17.02;8.77;;;;;;;15.20;75.80;98830.28;4882311;29;20052;-86
2023/10/04 14:45:45;;;;;;;17.70;7.75;;;;;;;14.82;75.95;98782.13;4894526;29;20085;-90
2023/10/04 14:48:15;;;;;;;34.75;20.52;;;;;;;15.12;75.85;98809.22;4894387;29;20116;-94
2023/10/04 14:50:42;;;;;;;23.10;11.02;;;;;;;15.16;75.63;98832.91;4890120;29;20041;-88
2023/10/04 14:53:08;;;;;;;17.05;8.30;;;;;;;15.12;75.46;98834.00;4873902;29;20194;-91
2023/10/04 14:55:35;;;;;;;14.10;7.05;;;;;;;15.13;75.69;98836.41;4908849;29;20056;-89
2023/10/04 14:58:03;;;;;;;21.67;11.93;;;;;;;14.96;75.70;98807.25;4928660;29;20068;-92
2023/10/04 15:00:29;;;;;;;20.48;10.73;;;;;;;14.80;75.74;98790.75;4915712;29;20056;-90
2023/10/04 15:02:56;;;;;;;19.23;8.50;;;;;;;15.21;75.75;98857.44;4912419;29;20249;-84
2023/10/04 15:05:27;;;;;;;18.95;8.05;;;;;;;15.21;75.85;98862.16;4912466;29;20052;-91
2023/10/04 15:08:03;;;;;;;14.02;7.68;;;;;;;15.04;75.77;98833.81;4914799;29;20051;-85
2023/10/04 15:10:31;;;;;;;13.15;6.82;;;;;;;15.19;75.17;98856.19;4943382;29;20059;-91
2023/10/04 15:12:58;;;;;;;18.30;7.03;;;;;;;15.19;75.09;98856.97;4903510;29;20051;-83
2023/10/04 15:15:24;;;;;;;13.68;6.85;;;;;;;15.12;75.13;98842.25;4925291;29;20044;-90
2023/10/04 15:17:50;;;;;;;14.82;7.03;;;;;;;15.11;74.90;98846.16;4912460;29;20048;-85
2023/10/04 15:20:18;;;;;;;13.60;6.17;;;;;;;15.07;74.71;98850.78;4933317;29;20055;-91
2023/10/04 15:22:44;;;;;;;14.52;7.05;;;;;;;15.01;74.48;98834.53;4941764;29;20040;-90
2023/10/04 15:25:12;;;;;;;15.57;7.20;;;;;;;14.94;74.66;98828.03;4935552;29;20048;-93
2023/10/04 15:27:51;;;;;;;13.35;6.95;;;;;;;15.20;74.40;98875.13;4903576;29;20040;-91
2023/10/04 15:30:21;;;;;;;15.93;6.72;;;;;;;15.20;74.36;98874.34;4932473;29;20046;-91
2023/10/04 15:32:52;;;;;;;12.70;6.35;;;;;;;15.15;74.27;98886.38;4926088;29;20043;-92
2023/10/04 15:35:24;;;;;;;15.02;6.70;;;;;;;14.79;74.11;98827.66;4916982;29;20048;-90
2023/10/04 15:37:53;;;;;;;14.27;6.40;;;;;;;14.85;73.75;98846.66;4904456;29;20047;-88
2023/10/04 15:40:30;;;;;;;17.55;7.45;;;;;;;15.04;73.61;98891.63;4891270;29;20083;-87
2023/10/04 15:43:04;;;;;;;11.68;6.50;;;;;;;15.21;73.50;98915.25;4923472;29;20062;-91
2023/10/04 15:45:37;;;;;;;13.60;6.60;;;;;;;15.05;73.31;98897.91;4908027;29;20056;-92
2023/10/04 15:48:11;;;;;;;13.15;5.95;;;;;;;15.20;72.64;98907.38;4911625;29;20036;-92
2023/10/04 15:50:47;;;;;;;20.52;6.50;;;;;;;14.85;72.76;98852.97;4927497;29;20040;-91
2023/10/04 15:53:17;;;;;;;15.63;6.47;;;;;;;14.74;72.89;98860.16;4922717;29;20054;-93
2023/10/04 15:55:44;;;;;;;18.33;6.70;;;;;;;14.77;73.27;98873.19;4931959;29;20096;-88
2023/10/04 15:58:11;;;;;;;13.25;6.82;;;;;;;14.91;73.49;98923.13;4912223;29;20103;-90
2023/10/04 16:00:44;;;;;;;15.70;6.40;;;;;;;15.04;73.45;98940.38;4925272;29;20058;-91
2023/10/04 16:03:14;;;;;;;13.18;6.20;;;;;;;14.99;73.24;98938.66;4926010;29;20048;-92
2023/10/04 16:05:43;;;;;;;14.13;5.90;;;;;;;14.55;72.99;98883.59;4892618;29;20049;-85
2023/10/04 16:08:10;;;;;;;13.70;6.10;;;;;;;14.50;72.98;98883.00;4911678;29;20045;-92
2023/10/04 16:10:37;;;;;;;16.67;6.60;;;;;;;14.84;73.25;98944.16;4911236;29;20059;-91
2023/10/04 16:13:04;;;;;;;19.98;6.60;;;;;;;14.55;73.51;98919.34;4913451;29;20293;-92
2023/10/04 16:15:31;;;;;;;12.90;6.50;;;;;;;14.29;73.88;98895.00;4916096;29;20056;-92
2023/10/04 16:18:17;;;;;;;14.23;6.20;;;;;;;14.52;73.94;98941.25;4916226;29;20040;-88
2023/10/04 16:20:46;;;;;;;12.57;6.03;;;;;;;14.29;74.20;98903.25;4919047;29;20032;-88
2023/10/04 16:23:12;;;;;;;12.30;6.13;;;;;;;14.29;74.11;98913.44;4903488;29;20308;-85
2023/10/04 16:25:40;;;;;;;13.40;5.83;;;;;;;14.44;74.32;98942.97;4887562;29;20036;-87
2023/10/04 16:28:16;;;;;;;7.78;4.57;;;;;;;14.12;72.34;98910.97;4895646;29;20035;-88
2023/10/04 16:30:44;;;;;;;11.95;5.55;;;;;;;14.38;73.63;98949.06;4896765;29;20047;-85
2023/10/04 16:33:10;;;;;;;16.30;6.20;;;;;;;14.41;73.32;98953.88;4884186;29;20063;-86
2023/10/04 16:35:39;;;;;;;10.40;5.50;;;;;;;14.26;73.44;98950.69;4923195;29;20051;-90
2023/10/04 16:38:07;;;;;;;11.85;5.55;;;;;;;14.45;73.44;98994.06;4888286;29;20047;-87
2023/10/04 16:40:36;;;;;;;13.65;5.63;;;;;;;14.32;73.71;98973.25;4916485;29;20044;-86
2023/10/04 16:43:05;;;;;;;11.82;5.72;;;;;;;14.40;74.20;99010.00;4923309;29;20096;-88
2023/10/04 16:45:31;;;;;;;13.38;5.50;;;;;;;14.39;74.04;99005.66;4923019;29;20051;-87
2023/10/04 16:47:58;;;;;;;12.35;6.05;;;;;;;14.30;74.12;99003.84;4906910;29;20047;-91
2023/10/04 16:50:28;;;;;;;12.13;5.10;;;;;;;14.30;74.17;99017.59;4923782;29;20103;-85
2023/10/04 16:52:55;;;;;;;17.15;5.00;;;;;;;13.85;73.06;98946.25;4927202;29;20670;-87
2023/10/04 16:55:29;;;;;;;9.32;4.75;;;;;;;13.99;72.49;98979.69;4911949;29;20679;-92
2023/10/04 16:57:58;;;;;;;10.02;4.50;;;;;;;14.36;72.08;99029.13;4909724;29;20048;-92
2023/10/04 17:00:26;;;;;;;9.50;4.53;;;;;;;14.29;71.47;99034.41;4909253;29;20104;-93
2023/10/04 17:02:55;;;;;;;12.27;5.03;;;;;;;14.32;71.15;99044.72;4912794;29;20052;-88
2023/10/04 17:05:29;;;;;;;13.60;4.40;;;;;;;14.25;71.20;99030.75;4835112;29;20045;-92
2023/10/04 17:08:21;;;;;;;16.15;4.78;;;;;;;14.22;70.86;99042.44;4880875;29;20081;-91
2023/10/04 17:10:48;;;;;;;12.38;4.50;;;;;;;14.20;70.41;99050.22;4896494;29;20075;-88
2023/10/04 17:13:17;;;;;;;8.25;4.30;;;;;;;13.69;69.75;98990.09;4890293;29;20101;-89
2023/10/04 17:15:49;;;;;;;9.52;3.85;;;;;;;14.06;68.76;99036.81;4891873;29;20048;-88
2023/10/04 17:18:18;;;;;;;8.35;3.90;;;;;;;14.10;68.19;99046.81;4884797;29;20045;-90
2023/10/04 17:21:07;;;;;;;16.38;4.13;;;;;;;13.90;67.46;99020.19;4837964;29;20095;-92
2023/10/04 17:23:33;;;;;;;9.07;4.07;;;;;;;13.86;66.89;99017.34;4836401;29;20043;-85
2023/10/04 17:26:10;;;;;;;7.40;3.40;;;;;;;14.01;67.24;99042.56;4825030;29;20660;-85
2023/10/04 17:28:37;;;;;;;;;;;;;;;14.11;67.13;99064.09;4827259;29;20047;-87
2023/10/04 17:31:07;;;;;;;11.93;3.85;;;;;;;13.89;66.36;99026.06;4834962;29;19928;-88
2023/10/04 17:33:34;;;;;;;12.65;3.65;;;;;;;14.02;66.59;99066.94;4823185;29;20123;-85
2023/10/04 17:36:05;;;;;;;15.98;3.50;;;;;;;13.74;66.39;99017.34;4803752;29;20062;-83
2023/10/04 17:38:33;;;;;;;9.68;3.55;;;;;;;13.76;66.48;99028.78;4822305;29;20058;-84
2023/10/04 17:41:00;;;;;;;12.75;3.45;;;;;;;13.70;66.54;99032.09;4819496;29;20038;-85
2023/10/04 17:43:26;;;;;;;6.60;2.88;;;;;;;13.72;66.49;99047.09;4821157;29;20233;-84
2023/10/04 17:45:53;;;;;;;9.90;3.53;;;;;;;13.90;66.62;99072.41;4818121;29;20892;-88
2023/10/04 17:48:19;;;;;;;15.02;4.22;;;;;;;13.72;66.79;99052.59;4819790;29;20308;-83
2023/10/04 17:50:48;;;;;;;11.25;3.92;;;;;;;13.85;67.02;99076.19;4811726;29;20584;-83
2023/10/04 17:53:16;;;;;;;10.82;3.97;;;;;;;13.73;67.19;99061.63;4831567;29;20046;-89
2023/10/04 17:55:43;;;;;;;10.75;3.65;;;;;;;13.58;67.41;99044.66;4832182;29;20050;-85
2023/10/04 17:58:09;;;;;;;13.82;3.33;;;;;;;13.29;67.58;99009.91;4838560;29;20074;-85
2023/10/04 18:00:36;;;;;;;7.53;3.38;;;;;;;13.75;67.86;99087.63;4875483;29;20071;-85
2023/10/04 18:03:05;;;;;;;9.98;3.30;;;;;;;13.75;67.99;99075.84;4873325;29;20037;-84
2023/10/04 18:05:34;;;;;;;16.25;3.47;;;;;;;13.58;67.96;99038.38;4906977;29;20119;-83
2023/10/04 18:08:00;;;;;;;10.93;3.63;;;;;;;13.49;68.24;99041.19;4901882;29;20056;-84
2023/10/04 18:10:28;;;;;;;11.25;3.67;;;;;;;13.36;68.24;99021.13;4904226;29;20103;-84
2023/10/04 18:12:54;;;;;;;10.23;3.63;;;;;;;13.70;68.37;99079.56;4898337;29;20059;-83
2023/10/04 18:15:22;;;;;;;11.65;3.38;;;;;;;13.69;68.75;99077.19;4917770;29;20075;-84
2023/10/04 18:17:48;;;;;;;14.13;3.80;;;;;;;13.36;68.98;99034.84;4898935;29;20121;-85
2023/10/04 18:20:18;;;;;;;11.18;3.80;;;;;;;13.27;69.39;99034.13;4916886;29;20040;-84
2023/10/04 18:22:53;;;;;;;18.27;3.88;;;;;;;13.61;70.16;99092.63;4927512;29;20035;-84
2023/10/04 18:25:21;;;;;;;11.55;3.90;;;;;;;13.47;70.38;99081.09;4906619;29;20044;-88
2023/10/04 18:27:47;;;;;;;12.88;4.63;;;;;;;13.61;70.55;99092.63;4907558;29;20573;-84
2023/10/04 18:30:14;;;;;;;11.75;3.92;;;;;;;13.66;70.90;99111.63;4923559;29;20048;-87
2023/10/04 18:32:41;;;;;;;11.90;4.83;;;;;;;13.28;71.33;99056.94;4923803;29;20056;-86
2023/10/04 18:35:09;;;;;;;11.07;3.80;;;;;;;13.64;71.29;99113.88;4914292;29;20108;-83
2023/10/04 18:37:42;;;;;;;10.27;4.43;;;;;;;13.26;71.44;99050.94;4898663;29;21021;-89
2023/10/04 18:40:09;;;;;;;9.80;4.43;;;;;;;13.17;71.32;99051.78;4861387;29;20138;-88
2023/10/04 18:42:38;;;;;;;7.80;4.00;;;;;;;13.23;71.35;99057.09;4910457;29;20048;-85
2023/10/04 18:45:08;;;;;;;8.40;3.95;;;;;;;13.56;70.93;99112.03;4911817;29;20084;-89
2023/10/04 18:47:35;;;;;;;11.65;4.53;;;;;;;13.56;70.65;99106.56;4904394;29;20071;-84
2023/10/04 18:50:09;;;;;;;13.82;4.25;;;;;;;13.49;70.19;99106.31;4912170;29;20035;-86
2023/10/04 18:52:36;;;;;;;14.43;4.57;;;;;;;13.20;70.16;99066.78;4930279;29;20036;-90
2023/10/04 18:55:08;;;;;;;10.32;3.97;;;;;;;13.27;70.01;99088.25;4919798;29;20044;-88
2023/10/04 18:57:36;;;;;;;8.95;4.00;;;;;;;13.27;69.92;99096.47;4883584;29;20119;-87